createdAt,value
2018-04-11T00:01:55.760Z,6.73
2018-04-11T00:04:24.958Z,6.80
2018-04-11T00:06:54.150Z,6.67
2018-04-11T00:09:23.357Z,6.97
2018-04-11T00:11:52.561Z,8.23
2018-04-11T00:14:21.770Z,6.17
2018-04-11T00:16:50.197Z,8.07
2018-04-11T00:19:18.619Z,7.10
2018-04-11T00:21:47.060Z,8.07
2018-04-11T00:24:15.480Z,8.33
2018-04-11T00:26:44.695Z,7.77
2018-04-11T00:29:13.113Z,7.57
2018-04-11T00:31:41.525Z,6.37
2018-04-11T00:34:10.537Z,5.30
2018-04-11T00:36:38.977Z,6.47
2018-04-11T00:39:07.403Z,7.63
2018-04-11T00:41:35.810Z,7.20
2018-04-11T00:44:04.302Z,7.77
2018-04-11T00:46:32.722Z,7.23
2018-04-11T00:49:01.143Z,8.07
2018-04-11T00:51:29.577Z,9.57
2018-04-11T00:53:57.684Z,9.53
2018-04-11T00:56:26.116Z,8.53
2018-04-11T00:58:55.301Z,9.07
2018-04-11T01:01:24.497Z,11.43
2018-04-11T01:03:53.706Z,10.83
2018-04-11T01:06:21.813Z,9.73
2018-04-11T01:08:50.219Z,9.27
2018-04-11T01:11:18.640Z,9.70
2018-04-11T01:13:47.072Z,10.40
2018-04-11T01:16:15.501Z,9.83
2018-04-11T01:18:43.963Z,8.97
2018-04-11T01:21:13.165Z,9.77
2018-04-11T01:23:42.941Z,9.20
2018-04-11T01:26:11.357Z,12.03
2018-04-11T01:28:39.960Z,11.80
2018-04-11T01:31:08.391Z,10.87
2018-04-11T01:33:36.815Z,8.77
2018-04-11T01:36:04.907Z,10.67
2018-04-11T01:38:33.376Z,11.30
2018-04-11T01:41:01.815Z,10.20
2018-04-11T01:43:31.000Z,11.17
2018-04-11T01:46:00.205Z,9.73
2018-04-11T01:48:29.498Z,10.20
2018-04-11T01:50:58.691Z,10.20
2018-04-11T01:53:27.878Z,11.93
2018-04-11T01:55:56.309Z,11.37
2018-04-11T01:58:24.739Z,11.47
2018-04-11T02:00:53.159Z,10.37
2018-04-11T02:03:21.619Z,11.80
2018-04-11T02:05:50.803Z,11.87
2018-04-11T02:08:20.012Z,10.87
2018-04-11T02:10:48.976Z,11.97
2018-04-11T02:13:17.402Z,10.23
2018-04-11T02:15:45.610Z,10.37
2018-04-11T02:18:13.819Z,8.80
2018-04-11T02:20:43.010Z,10.33
2018-04-11T02:23:12.283Z,9.17
2018-04-11T02:25:40.386Z,9.67
2018-04-11T02:28:09.623Z,8.23
2018-04-11T02:30:38.057Z,8.27
2018-04-11T02:33:07.260Z,8.27
2018-04-11T02:35:36.437Z,7.90
2018-04-11T02:38:04.868Z,7.80
2018-04-11T02:40:33.288Z,8.73
2018-04-11T02:43:01.749Z,6.87
2018-04-11T02:45:30.510Z,7.63
2018-04-11T02:47:58.953Z,8.07
2018-04-11T02:50:28.147Z,8.60
2018-04-11T02:52:57.344Z,8.90
2018-04-11T02:55:26.541Z,10.97
2018-04-11T02:57:55.816Z,8.30
2018-04-11T03:00:24.228Z,9.53
2018-04-11T03:02:53.229Z,9.30
2018-04-11T03:05:21.649Z,8.93
2018-04-11T03:07:50.163Z,7.87
2018-04-11T03:10:19.350Z,7.60
2018-04-11T03:12:47.773Z,8.53
2018-04-11T03:15:16.212Z,9.53
2018-04-11T03:17:44.666Z,7.83
2018-04-11T03:20:13.121Z,11.53
2018-04-11T03:22:41.581Z,11.57
2018-04-11T03:25:10.005Z,9.50
2018-04-11T03:27:38.441Z,15.47
2018-04-11T03:30:06.917Z,12.80
2018-04-11T03:32:35.346Z,10.43
2018-04-11T03:35:03.544Z,10.40
2018-04-11T03:37:32.752Z,12.60
2018-04-11T03:40:02.933Z,10.73
2018-04-11T03:42:31.977Z,11.63
2018-04-11T03:45:00.402Z,12.50
2018-04-11T03:47:28.845Z,10.83
2018-04-11T03:49:57.274Z,10.43
2018-04-11T03:52:25.717Z,12.40
2018-04-11T03:54:54.152Z,13.30
2018-04-11T03:57:22.756Z,9.90
2018-04-11T03:59:51.183Z,10.93
2018-04-11T04:02:19.601Z,9.80
2018-04-11T04:04:48.818Z,10.73
2018-04-11T04:07:17.238Z,9.83
2018-04-11T04:09:45.667Z,12.63
2018-04-11T04:12:14.119Z,10.73
2018-04-11T04:14:54.578Z,10.30
2018-04-11T04:17:35.073Z,11.23
2018-04-11T04:20:28.599Z,10.40
2018-04-11T04:22:57.039Z,8.90
2018-04-11T04:25:25.221Z,9.03
2018-04-11T04:27:53.671Z,10.73
2018-04-11T04:30:22.091Z,10.37
2018-04-11T04:32:50.289Z,11.37
2018-04-11T04:35:19.484Z,10.90
2018-04-11T04:37:48.676Z,12.03
2018-04-11T04:40:17.883Z,12.23
2018-04-11T04:42:47.077Z,11.17
2018-04-11T04:45:16.298Z,12.50
2018-04-11T04:47:44.713Z,11.80
2018-04-11T04:50:13.135Z,11.43
2018-04-11T04:52:42.349Z,11.77
2018-04-11T04:55:10.784Z,11.93
2018-04-11T04:57:39.209Z,13.27
2018-04-11T05:00:07.658Z,14.87
2018-04-11T05:02:36.666Z,12.47
2018-04-11T05:05:05.625Z,12.77
2018-04-11T05:07:34.059Z,13.20
2018-04-11T05:10:03.361Z,12.37
2018-04-11T05:12:32.108Z,11.90
2018-04-11T05:15:01.227Z,13.33
2018-04-11T05:17:29.905Z,11.83
2018-04-11T05:19:58.337Z,14.10
2018-04-11T05:22:26.766Z,13.67
2018-04-11T05:24:54.999Z,12.57
2018-04-11T05:27:23.448Z,10.47
2018-04-11T05:29:51.870Z,9.87
2018-04-11T05:32:20.850Z,8.60
2018-04-11T05:34:49.304Z,8.97
2018-04-11T05:37:17.729Z,8.93
2018-04-11T05:39:46.921Z,8.37
2018-04-11T05:42:16.120Z,8.70
2018-04-11T05:44:45.315Z,8.37
2018-04-11T05:47:14.506Z,8.27
2018-04-11T05:49:43.695Z,8.93
2018-04-11T05:52:12.132Z,6.73
2018-04-11T05:54:40.561Z,10.47
2018-04-11T05:57:09.776Z,7.70
2018-04-11T05:59:38.188Z,6.93
2018-04-11T06:02:06.609Z,8.17
2018-04-11T06:04:35.825Z,7.73
2018-04-11T06:07:06.013Z,7.20
2018-04-11T06:09:34.461Z,7.97
2018-04-11T06:12:03.724Z,7.77
2018-04-11T06:14:32.750Z,7.87
2018-04-11T06:17:01.224Z,8.60
2018-04-11T06:19:29.840Z,7.43
2018-04-11T06:21:58.278Z,7.90
2018-04-11T06:24:26.700Z,7.50
2018-04-11T06:26:55.127Z,6.77
2018-04-11T06:29:23.553Z,8.13
2018-04-11T06:31:51.979Z,8.10
2018-04-11T06:34:20.404Z,7.43
2018-04-11T06:36:48.865Z,7.87
2018-04-11T06:39:17.301Z,6.83
2018-04-11T06:41:46.488Z,6.73
2018-04-11T06:44:15.073Z,7.03
2018-04-11T06:46:44.280Z,7.37
2018-04-11T06:49:13.473Z,6.33
2018-04-11T06:51:42.769Z,6.63
2018-04-11T06:54:11.992Z,7.73
2018-04-11T06:56:40.415Z,7.30
2018-04-11T06:59:08.854Z,6.70
2018-04-11T07:01:37.297Z,7.50
2018-04-11T07:04:06.489Z,7.10
2018-04-11T07:06:35.693Z,7.87
2018-04-11T07:09:04.216Z,8.47
2018-04-11T07:11:32.679Z,6.83
2018-04-11T07:14:01.191Z,5.70
2018-04-11T07:16:29.612Z,6.30
2018-04-11T07:18:58.818Z,6.27
2018-04-11T07:21:28.004Z,7.60
2018-04-11T07:23:57.213Z,5.23
2018-04-11T07:26:25.638Z,5.03
2018-04-11T07:28:54.090Z,5.73
2018-04-11T07:31:22.185Z,6.53
2018-04-11T07:33:50.614Z,6.53
2018-04-11T07:36:20.025Z,5.77
2018-04-11T07:38:48.457Z,9.20
2018-04-11T07:41:16.884Z,8.43
2018-04-11T07:43:45.329Z,8.23
2018-04-11T07:46:13.788Z,10.90
2018-04-11T07:48:42.274Z,8.13
2018-04-11T07:51:10.715Z,9.37
2018-04-11T07:53:40.083Z,8.67
2018-04-11T07:56:09.275Z,10.83
2018-04-11T07:58:38.503Z,8.70
2018-04-11T08:01:06.598Z,9.23
2018-04-11T08:03:35.786Z,8.80
2018-04-11T08:06:04.135Z,9.33
2018-04-11T08:08:32.552Z,7.83
2018-04-11T08:11:01.014Z,7.47
2018-04-11T08:13:30.235Z,7.63
2018-04-11T08:15:58.664Z,8.63
2018-04-11T08:18:27.101Z,8.37
2018-04-11T08:20:55.309Z,8.10
2018-04-11T08:23:28.780Z,8.20
2018-04-11T08:25:56.989Z,8.97
2018-04-11T08:28:25.408Z,8.30
2018-04-11T08:30:53.847Z,11.00
2018-04-11T08:33:22.277Z,9.03
2018-04-11T08:35:50.716Z,7.73
2018-04-11T20:40:51.297Z,7.90
2018-04-11T20:43:20.506Z,7.77
2018-04-11T20:45:48.941Z,10.33
2018-04-11T20:48:17.367Z,7.50
2018-04-11T20:50:45.783Z,7.30
2018-04-11T20:53:13.896Z,8.27
2018-04-11T20:55:43.084Z,7.53
2018-04-11T20:58:12.323Z,8.80
2018-04-11T21:00:40.425Z,7.83
2018-04-11T21:03:08.850Z,8.83
2018-04-11T21:05:37.297Z,8.20
2018-04-11T21:08:05.730Z,8.23
2018-04-11T21:10:34.174Z,8.67
2018-04-11T21:13:03.373Z,8.50
2018-04-11T21:15:32.565Z,10.13
2018-04-11T21:18:01.769Z,8.13
2018-04-11T21:20:30.969Z,9.43
2018-04-11T21:23:00.183Z,9.20
2018-04-11T21:25:28.616Z,8.10
2018-04-11T21:27:57.598Z,8.07
2018-04-11T21:30:26.081Z,10.73
2018-04-11T21:32:54.514Z,11.27
2018-04-11T21:35:22.952Z,8.93
2018-04-11T21:37:51.372Z,8.17
2018-04-11T21:40:19.826Z,9.13
2018-04-11T21:42:49.031Z,9.73
2018-04-11T21:45:17.479Z,12.23
2018-04-11T21:47:45.899Z,8.00
2018-04-11T21:50:14.321Z,7.47
2018-04-11T21:52:42.772Z,9.37
2018-04-11T21:55:11.212Z,8.37
2018-04-11T21:57:40.413Z,9.93
2018-04-11T22:00:12.312Z,8.53
2018-04-11T22:02:40.773Z,12.57
2018-04-11T22:05:09.204Z,9.03
2018-04-11T22:07:37.650Z,12.00
2018-04-11T22:10:06.098Z,10.37
2018-04-11T22:12:34.557Z,8.43
2018-04-11T22:15:03.431Z,12.03
2018-04-11T22:17:31.861Z,11.67
2018-04-11T22:20:00.320Z,9.17
2018-04-11T22:22:29.544Z,9.53
2018-04-11T22:24:57.987Z,8.77
2018-04-11T22:27:26.978Z,11.23
2018-04-11T22:29:56.463Z,10.40
2018-04-11T22:32:24.902Z,15.93
2018-04-11T22:34:53.342Z,10.80
2018-04-11T22:37:22.555Z,10.67
2018-04-11T22:39:51.010Z,10.23
2018-04-11T22:42:20.248Z,11.93
2018-04-11T22:44:49.623Z,10.07
2018-04-11T22:47:18.845Z,12.03
2018-04-11T22:49:47.284Z,10.27
2018-04-11T22:52:16.481Z,11.20
2018-04-11T22:54:45.692Z,11.50
2018-04-11T22:57:14.881Z,11.73
2018-04-11T22:59:43.864Z,14.57
2018-04-11T23:02:13.075Z,11.80
2018-04-11T23:04:42.044Z,11.57
2018-04-11T23:07:10.228Z,13.63
2018-04-11T23:09:39.226Z,11.50
2018-04-11T23:12:08.932Z,9.97
2018-04-11T23:14:37.901Z,12.37
2018-04-11T23:17:06.626Z,10.67
2018-04-11T23:19:34.825Z,18.33
2018-04-11T23:22:03.270Z,12.47
2018-04-11T23:24:32.456Z,12.77
2018-04-11T23:27:01.679Z,14.87
2018-04-11T23:29:30.115Z,11.63
2018-04-11T23:31:58.547Z,11.33
2018-04-11T23:34:26.980Z,11.90
2018-04-11T23:36:55.404Z,11.20
2018-04-11T23:39:23.851Z,11.17
2018-04-11T23:41:53.068Z,12.07
2018-04-11T23:44:21.683Z,11.53
2018-04-11T23:46:50.098Z,15.27
2018-04-11T23:49:18.527Z,12.40
2018-04-11T23:51:46.969Z,12.80
2018-04-11T23:54:16.170Z,11.33
2018-04-11T23:56:45.380Z,11.43
2018-04-11T23:59:13.809Z,14.70
